sensor_id;sensor_type;location;lat;lon;timestamp;pressure;altitude;pressure_sealevel;temperature;humidity
63535;BME280;55128;50.230;18.944;2023-06-26T00:02:47;98533.69;;;14.09;81.06
63535;BME280;55128;50.230;18.944;2023-06-26T00:08:03;98535.97;;;14.00;81.60
63535;BME280;55128;50.230;18.944;2023-06-26T00:13:04;98530.34;;;13.91;80.66
63535;BME280;55128;50.230;18.944;2023-06-26T00:18:05;98529.94;;;13.83;81.13
63535;BME280;55128;50.230;18.944;2023-06-26T00:23:05;98533.84;;;13.77;80.97
63535;BME280;55128;50.230;18.944;2023-06-26T00:28:07;98535.91;;;13.72;80.93
63535;BME280;55128;50.230;18.944;2023-06-26T00:33:08;98536.00;;;13.56;81.23
63535;BME280;55128;50.230;18.944;2023-06-26T00:38:08;98535.03;;;13.57;81.95
63535;BME280;55128;50.230;18.944;2023-06-26T00:43:08;98527.25;;;13.38;82.34
63535;BME280;55128;50.230;18.944;2023-06-26T00:48:10;98526.16;;;13.42;81.57
63535;BME280;55128;50.230;18.944;2023-06-26T00:53:14;98524.78;;;13.35;81.84
63535;BME280;55128;50.230;18.944;2023-06-26T00:58:14;98525.72;;;13.34;82.26
63535;BME280;55128;50.230;18.944;2023-06-26T01:03:15;98529.50;;;13.30;81.66
63535;BME280;55128;50.230;18.944;2023-06-26T01:08:16;98528.50;;;13.16;82.55
63535;BME280;55128;50.230;18.944;2023-06-26T01:13:18;98517.00;;;13.16;82.29
63535;BME280;55128;50.230;18.944;2023-06-26T01:18:19;98510.22;;;13.10;82.36
63535;BME280;55128;50.230;18.944;2023-06-26T01:23:24;98507.47;;;12.96;82.25
63535;BME280;55128;50.230;18.944;2023-06-26T01:28:26;98513.75;;;12.95;82.17
63535;BME280;55128;50.230;18.944;2023-06-26T01:33:27;98510.59;;;12.88;82.90
63535;BME280;55128;50.230;18.944;2023-06-26T01:38:29;98511.53;;;12.87;83.15
63535;BME280;55128;50.230;18.944;2023-06-26T01:49:15;98499.34;;;12.67;82.50
63535;BME280;55128;50.230;18.944;2023-06-26T01:54:19;98502.53;;;12.58;83.14
63535;BME280;55128;50.230;18.944;2023-06-26T01:59:22;98498.13;;;12.57;83.18
63535;BME280;55128;50.230;18.944;2023-06-26T02:04:22;98502.63;;;12.56;82.87
63535;BME280;55128;50.230;18.944;2023-06-26T02:09:23;98490.59;;;12.49;82.57
63535;BME280;55128;50.230;18.944;2023-06-26T02:14:23;98496.25;;;12.43;82.85
63535;BME280;55128;50.230;18.944;2023-06-26T02:19:23;98494.59;;;12.40;83.36
63535;BME280;55128;50.230;18.944;2023-06-26T02:24:25;98491.38;;;12.35;83.05
63535;BME280;55128;50.230;18.944;2023-06-26T02:29:27;98497.69;;;12.33;82.94
63535;BME280;55128;50.230;18.944;2023-06-26T02:34:28;98498.38;;;12.36;82.64
63535;BME280;55128;50.230;18.944;2023-06-26T02:39:28;98499.78;;;12.28;83.22
63535;BME280;55128;50.230;18.944;2023-06-26T02:44:29;98501.66;;;12.41;82.72
63535;BME280;55128;50.230;18.944;2023-06-26T02:49:29;98499.66;;;12.29;83.45
63535;BME280;55128;50.230;18.944;2023-06-26T02:54:30;98503.88;;;12.17;84.07
63535;BME280;55128;50.230;18.944;2023-06-26T02:59:30;98495.47;;;12.25;84.13
63535;BME280;55128;50.230;18.944;2023-06-26T03:04:30;98507.34;;;12.35;83.63
63535;BME280;55128;50.230;18.944;2023-06-26T03:09:31;98488.84;;;12.32;84.88
63535;BME280;55128;50.230;18.944;2023-06-26T03:14:31;98493.78;;;13.02;85.46
63535;BME280;55128;50.230;18.944;2023-06-26T03:19:32;98499.41;;;13.58;83.53
63535;BME280;55128;50.230;18.944;2023-06-26T03:24:32;98497.47;;;13.76;80.22
63535;BME280;55128;50.230;18.944;2023-06-26T03:29:33;98502.97;;;14.16;77.88
63535;BME280;55128;50.230;18.944;2023-06-26T03:34:34;98506.38;;;14.47;76.74
63535;BME280;55128;50.230;18.944;2023-06-26T03:39:34;98500.91;;;15.04;75.72
63535;BME280;55128;50.230;18.944;2023-06-26T03:44:35;98511.63;;;14.63;74.43
63535;BME280;55128;50.230;18.944;2023-06-26T03:49:35;98508.13;;;14.62;74.13
63535;BME280;55128;50.230;18.944;2023-06-26T03:54:35;98500.09;;;14.62;75.56
63535;BME280;55128;50.230;18.944;2023-06-26T03:59:36;98498.72;;;14.69;75.67
63535;BME280;55128;50.230;18.944;2023-06-26T04:04:36;98505.78;;;14.97;75.91
63535;BME280;55128;50.230;18.944;2023-06-26T04:09:37;98504.94;;;15.77;74.44
63535;BME280;55128;50.230;18.944;2023-06-26T04:14:38;98502.66;;;17.09;70.23
63535;BME280;55128;50.230;18.944;2023-06-26T04:19:38;98509.44;;;18.42;66.31
63535;BME280;55128;50.230;18.944;2023-06-26T04:24:39;98507.72;;;19.51;62.54
63535;BME280;55128;50.230;18.944;2023-06-26T04:29:39;98504.06;;;20.25;60.88
63535;BME280;55128;50.230;18.944;2023-06-26T04:34:39;98501.81;;;21.30;58.87
63535;BME280;55128;50.230;18.944;2023-06-26T04:39:43;98508.13;;;22.27;55.57
63535;BME280;55128;50.230;18.944;2023-06-26T04:44:43;98510.72;;;22.56;55.24
63535;BME280;55128;50.230;18.944;2023-06-26T04:49:43;98513.59;;;22.73;52.69
63535;BME280;55128;50.230;18.944;2023-06-26T04:54:45;98511.88;;;24.07;50.55
63535;BME280;55128;50.230;18.944;2023-06-26T04:59:46;98519.91;;;24.17;49.25
63535;BME280;55128;50.230;18.944;2023-06-26T05:04:46;98520.13;;;25.59;45.75
63535;BME280;55128;50.230;18.944;2023-06-26T05:09:47;98527.19;;;24.69;47.49
63535;BME280;55128;50.230;18.944;2023-06-26T05:14:47;98531.25;;;26.63;43.35
63535;BME280;55128;50.230;18.944;2023-06-26T05:19:48;98534.06;;;27.18;40.98
63535;BME280;55128;50.230;18.944;2023-06-26T05:24:49;98533.09;;;28.26;39.14
63535;BME280;55128;50.230;18.944;2023-06-26T05:29:52;98528.16;;;27.83;39.61
63535;BME280;55128;50.230;18.944;2023-06-26T05:34:54;98528.81;;;28.91;37.66
63535;BME280;55128;50.230;18.944;2023-06-26T05:39:55;98527.09;;;29.41;36.94
63535;BME280;55128;50.230;18.944;2023-06-26T05:44:56;98523.31;;;29.42;36.31
63535;BME280;55128;50.230;18.944;2023-06-26T05:49:56;98521.41;;;29.06;37.35
63535;BME280;55128;50.230;18.944;2023-06-26T05:54:57;98526.28;;;29.11;37.28
63535;BME280;55128;50.230;18.944;2023-06-26T06:00:00;98522.25;;;30.65;35.22
63535;BME280;55128;50.230;18.944;2023-06-26T06:05:00;98514.13;;;30.43;35.00
63535;BME280;55128;50.230;18.944;2023-06-26T06:10:02;98521.84;;;32.11;31.26
63535;BME280;55128;50.230;18.944;2023-06-26T06:15:03;98516.91;;;32.73;30.97
63535;BME280;55128;50.230;18.944;2023-06-26T06:20:03;98517.41;;;31.90;32.24
63535;BME280;55128;50.230;18.944;2023-06-26T06:25:04;98524.28;;;34.01;29.08
63535;BME280;55128;50.230;18.944;2023-06-26T06:30:05;98536.22;;;34.64;27.90
63535;BME280;55128;50.230;18.944;2023-06-26T06:35:06;98523.19;;;33.39;29.00
63535;BME280;55128;50.230;18.944;2023-06-26T06:40:10;98530.53;;;34.40;27.98
63535;BME280;55128;50.230;18.944;2023-06-26T06:45:10;98534.97;;;35.22;27.14
63535;BME280;55128;50.230;18.944;2023-06-26T06:50:11;98533.47;;;36.34;25.65
63535;BME280;55128;50.230;18.944;2023-06-26T06:55:12;98534.34;;;36.34;25.81
63535;BME280;55128;50.230;18.944;2023-06-26T07:00:13;98533.75;;;35.48;26.05
63535;BME280;55128;50.230;18.944;2023-06-26T07:05:17;98531.19;;;36.43;24.75
63535;BME280;55128;50.230;18.944;2023-06-26T07:10:17;98533.78;;;37.49;23.29
63535;BME280;55128;50.230;18.944;2023-06-26T07:15:18;98532.63;;;36.10;24.42
63535;BME280;55128;50.230;18.944;2023-06-26T07:20:22;98526.13;;;36.63;24.37
63535;BME280;55128;50.230;18.944;2023-06-26T07:25:23;98529.66;;;37.80;22.91
63535;BME280;55128;50.230;18.944;2023-06-26T07:30:27;98529.44;;;38.16;22.83
63535;BME280;55128;50.230;18.944;2023-06-26T07:47:05;98534.00;;;38.56;21.13
63535;BME280;55128;50.230;18.944;2023-06-26T07:52:07;98526.63;;;39.05;20.62
63535;BME280;55128;50.230;18.944;2023-06-26T07:57:10;98532.47;;;40.08;20.00
63535;BME280;55128;50.230;18.944;2023-06-26T08:02:33;98535.66;;;40.32;20.31
63535;BME280;55128;50.230;18.944;2023-06-26T08:07:34;98524.88;;;38.43;21.35
63535;BME280;55128;50.230;18.944;2023-06-26T08:12:39;98524.38;;;40.06;19.93
63535;BME280;55128;50.230;18.944;2023-06-26T08:17:46;98532.00;;;40.26;18.93
63535;BME280;55128;50.230;18.944;2023-06-26T08:22:55;98536.13;;;41.72;16.50
63535;BME280;55128;50.230;18.944;2023-06-26T08:28:12;98530.81;;;41.75;16.91
63535;BME280;55128;50.230;18.944;2023-06-26T08:33:12;98528.09;;;42.22;17.63
63535;BME280;55128;50.230;18.944;2023-06-26T08:38:13;98519.41;;;42.23;16.25
63535;BME280;55128;50.230;18.944;2023-06-26T08:43:13;98521.25;;;40.35;18.11
63535;BME280;55128;50.230;18.944;2023-06-26T08:48:14;98522.72;;;40.85;17.55
63535;BME280;55128;50.230;18.944;2023-06-26T08:53:36;98524.63;;;39.77;17.58
63535;BME280;55128;50.230;18.944;2023-06-26T08:58:40;98508.16;;;38.21;19.43
63535;BME280;55128;50.230;18.944;2023-06-26T09:03:40;98514.84;;;40.02;18.12
63535;BME280;55128;50.230;18.944;2023-06-26T09:08:44;98514.13;;;42.11;16.46
63535;BME280;55128;50.230;18.944;2023-06-26T09:13:45;98516.06;;;38.63;17.78
63535;BME280;55128;50.230;18.944;2023-06-26T09:18:47;98502.84;;;34.91;22.57
63535;BME280;55128;50.230;18.944;2023-06-26T09:23:49;98492.22;;;33.50;24.55
63535;BME280;55128;50.230;18.944;2023-06-26T09:28:53;98494.03;;;35.31;22.34
63535;BME280;55128;50.230;18.944;2023-06-26T09:33:58;98499.19;;;37.51;19.31
63535;BME280;55128;50.230;18.944;2023-06-26T09:39:04;98494.38;;;38.82;18.17
63535;BME280;55128;50.230;18.944;2023-06-26T09:50:04;98490.75;;;36.89;19.69
63535;BME280;55128;50.230;18.944;2023-06-26T09:55:08;98479.59;;;36.01;20.67
63535;BME280;55128;50.230;18.944;2023-06-26T10:00:10;98481.56;;;35.28;21.75
63535;BME280;55128;50.230;18.944;2023-06-26T10:05:12;98478.44;;;34.32;24.10
63535;BME280;55128;50.230;18.944;2023-06-26T10:10:13;98460.72;;;33.39;23.09
63535;BME280;55128;50.230;18.944;2023-06-26T10:15:14;98456.19;;;33.26;23.51
63535;BME280;55128;50.230;18.944;2023-06-26T10:20:16;98452.50;;;32.94;24.64
63535;BME280;55128;50.230;18.944;2023-06-26T10:25:19;98449.59;;;32.04;24.84
63535;BME280;55128;50.230;18.944;2023-06-26T10:30:25;98441.75;;;31.74;24.84
63535;BME280;55128;50.230;18.944;2023-06-26T10:35:27;98436.34;;;30.92;26.47
63535;BME280;55128;50.230;18.944;2023-06-26T10:40:28;98428.47;;;31.51;27.45
63535;BME280;55128;50.230;18.944;2023-06-26T10:45:28;98430.72;;;31.20;26.02
63535;BME280;55128;50.230;18.944;2023-06-26T10:50:31;98424.16;;;31.02;26.18
63535;BME280;55128;50.230;18.944;2023-06-26T10:55:31;98421.63;;;31.13;26.18
63535;BME280;55128;50.230;18.944;2023-06-26T11:00:32;98418.72;;;31.28;27.27
63535;BME280;55128;50.230;18.944;2023-06-26T11:05:33;98421.91;;;30.70;27.49
63535;BME280;55128;50.230;18.944;2023-06-26T11:10:53;98402.88;;;29.57;28.70
63535;BME280;55128;50.230;18.944;2023-06-26T11:15:55;98414.19;;;30.04;29.08
63535;BME280;55128;50.230;18.944;2023-06-26T11:21:05;98406.81;;;30.39;28.02
63535;BME280;55128;50.230;18.944;2023-06-26T11:26:19;98406.97;;;30.79;28.30
63535;BME280;55128;50.230;18.944;2023-06-26T11:36:26;98407.88;;;30.10;26.57
63535;BME280;55128;50.230;18.944;2023-06-26T11:41:29;98396.75;;;29.12;28.08
63535;BME280;55128;50.230;18.944;2023-06-26T11:46:30;98392.06;;;29.06;28.33
63535;BME280;55128;50.230;18.944;2023-06-26T11:51:31;98395.94;;;29.83;27.96
63535;BME280;55128;50.230;18.944;2023-06-26T11:56:32;98391.47;;;29.75;26.88
63535;BME280;55128;50.230;18.944;2023-06-26T12:01:38;98378.03;;;29.31;28.66
63535;BME280;55128;50.230;18.944;2023-06-26T12:06:40;98371.72;;;29.30;29.41
63535;BME280;55128;50.230;18.944;2023-06-26T12:11:44;98370.66;;;29.81;28.17
63535;BME280;55128;50.230;18.944;2023-06-26T12:16:45;98367.56;;;29.97;28.33
63535;BME280;55128;50.230;18.944;2023-06-26T12:21:47;98353.31;;;29.17;29.47
63535;BME280;55128;50.230;18.944;2023-06-26T12:26:53;98359.94;;;29.86;29.12
63535;BME280;55128;50.230;18.944;2023-06-26T12:31:56;98357.06;;;29.66;29.24
63535;BME280;55128;50.230;18.944;2023-06-26T12:37:01;98356.06;;;29.45;29.31
63535;BME280;55128;50.230;18.944;2023-06-26T12:42:02;98359.59;;;28.96;29.63
63535;BME280;55128;50.230;18.944;2023-06-26T12:47:03;98351.91;;;29.06;28.95
63535;BME280;55128;50.230;18.944;2023-06-26T12:52:06;98346.78;;;29.18;28.85
63535;BME280;55128;50.230;18.944;2023-06-26T12:57:07;98342.66;;;29.07;28.52
63535;BME280;55128;50.230;18.944;2023-06-26T13:02:08;98351.13;;;29.34;29.72
63535;BME280;55128;50.230;18.944;2023-06-26T13:07:09;98335.50;;;29.06;29.04
63535;BME280;55128;50.230;18.944;2023-06-26T13:12:10;98345.59;;;30.19;29.91
63535;BME280;55128;50.230;18.944;2023-06-26T13:17:11;98341.09;;;30.53;28.17
63535;BME280;55128;50.230;18.944;2023-06-26T13:22:11;98328.13;;;30.27;27.18
63535;BME280;55128;50.230;18.944;2023-06-26T13:27:11;98330.47;;;29.88;28.18
63535;BME280;55128;50.230;18.944;2023-06-26T13:32:12;98326.06;;;29.59;28.55
63535;BME280;55128;50.230;18.944;2023-06-26T13:37:12;98323.97;;;29.33;28.77
63535;BME280;55128;50.230;18.944;2023-06-26T13:42:12;98311.53;;;29.30;29.83
63535;BME280;55128;50.230;18.944;2023-06-26T13:47:13;98312.84;;;29.34;29.46
63535;BME280;55128;50.230;18.944;2023-06-26T13:52:14;98309.94;;;30.06;28.65
63535;BME280;55128;50.230;18.944;2023-06-26T13:57:15;98307.53;;;29.61;30.16
63535;BME280;55128;50.230;18.944;2023-06-26T14:02:15;98294.13;;;29.73;28.81
63535;BME280;55128;50.230;18.944;2023-06-26T14:07:15;98292.44;;;30.07;28.26
63535;BME280;55128;50.230;18.944;2023-06-26T14:12:16;98281.56;;;29.43;28.14
63535;BME280;55128;50.230;18.944;2023-06-26T14:17:16;98281.84;;;29.05;29.21
63535;BME280;55128;50.230;18.944;2023-06-26T14:22:18;98287.34;;;29.34;29.63
63535;BME280;55128;50.230;18.944;2023-06-26T14:27:18;98265.84;;;29.59;29.02
63535;BME280;55128;50.230;18.944;2023-06-26T14:32:19;98259.56;;;29.58;28.53
63535;BME280;55128;50.230;18.944;2023-06-26T14:37:19;98256.16;;;29.56;28.79
63535;BME280;55128;50.230;18.944;2023-06-26T14:42:19;98260.63;;;29.29;27.81
63535;BME280;55128;50.230;18.944;2023-06-26T14:47:20;98249.03;;;29.62;27.33
63535;BME280;55128;50.230;18.944;2023-06-26T14:52:20;98239.94;;;29.20;27.87
63535;BME280;55128;50.230;18.944;2023-06-26T14:57:21;98230.03;;;29.54;27.35
63535;BME280;55128;50.230;18.944;2023-06-26T15:02:21;98227.22;;;29.40;28.51
63535;BME280;55128;50.230;18.944;2023-06-26T15:07:21;98231.84;;;29.12;29.01
63535;BME280;55128;50.230;18.944;2023-06-26T15:12:22;98232.94;;;28.89;29.23
63535;BME280;55128;50.230;18.944;2023-06-26T15:17:23;98220.31;;;28.88;28.78
63535;BME280;55128;50.230;18.944;2023-06-26T15:22:25;98204.69;;;28.54;28.76
63535;BME280;55128;50.230;18.944;2023-06-26T15:27:26;98202.00;;;28.60;29.14
63535;BME280;55128;50.230;18.944;2023-06-26T15:32:26;98201.25;;;28.66;30.46
63535;BME280;55128;50.230;18.944;2023-06-26T15:37:27;98198.06;;;28.91;29.89
63535;BME280;55128;50.230;18.944;2023-06-26T15:42:27;98190.03;;;28.61;30.13
63535;BME280;55128;50.230;18.944;2023-06-26T15:47:30;98188.22;;;28.68;29.46
63535;BME280;55128;50.230;18.944;2023-06-26T15:52:31;98185.06;;;28.72;30.62
63535;BME280;55128;50.230;18.944;2023-06-26T15:57:31;98185.41;;;28.62;30.68
63535;BME280;55128;50.230;18.944;2023-06-26T16:02:32;98178.47;;;28.59;31.02
63535;BME280;55128;50.230;18.944;2023-06-26T16:07:32;98166.69;;;28.37;31.07
63535;BME280;55128;50.230;18.944;2023-06-26T16:12:33;98158.44;;;28.30;31.25
63535;BME280;55128;50.230;18.944;2023-06-26T16:17:33;98157.00;;;28.13;31.73
63535;BME280;55128;50.230;18.944;2023-06-26T16:22:33;98156.22;;;28.19;31.97
63535;BME280;55128;50.230;18.944;2023-06-26T16:27:34;98143.06;;;27.86;32.73
63535;BME280;55128;50.230;18.944;2023-06-26T16:32:34;98142.25;;;27.71;33.71
63535;BME280;55128;50.230;18.944;2023-06-26T16:37:34;98143.94;;;27.72;33.55
63535;BME280;55128;50.230;18.944;2023-06-26T16:42:35;98142.97;;;27.43;34.50
63535;BME280;55128;50.230;18.944;2023-06-26T16:47:35;98137.81;;;27.33;33.56
63535;BME280;55128;50.230;18.944;2023-06-26T16:52:36;98140.91;;;27.30;34.14
63535;BME280;55128;50.230;18.944;2023-06-26T16:57:36;98143.53;;;27.24;34.56
63535;BME280;55128;50.230;18.944;2023-06-26T17:02:37;98140.25;;;27.28;35.13
63535;BME280;55128;50.230;18.944;2023-06-26T17:07:37;98138.47;;;27.36;34.76
63535;BME280;55128;50.230;18.944;2023-06-26T17:12:39;98140.41;;;27.12;35.31
63535;BME280;55128;50.230;18.944;2023-06-26T17:17:40;98133.59;;;27.01;34.75
63535;BME280;55128;50.230;18.944;2023-06-26T17:22:41;98135.91;;;27.04;35.40
63535;BME280;55128;50.230;18.944;2023-06-26T17:27:44;98128.13;;;27.01;35.33
63535;BME280;55128;50.230;18.944;2023-06-26T17:32:44;98128.69;;;26.96;34.91
63535;BME280;55128;50.230;18.944;2023-06-26T17:37:45;98129.88;;;26.64;35.64
63535;BME280;55128;50.230;18.944;2023-06-26T17:42:45;98126.09;;;26.65;36.58
63535;BME280;55128;50.230;18.944;2023-06-26T17:47:46;98124.28;;;26.57;37.12
63535;BME280;55128;50.230;18.944;2023-06-26T17:52:46;98133.28;;;26.43;38.44
63535;BME280;55128;50.230;18.944;2023-06-26T17:57:46;98125.72;;;25.92;40.78
63535;BME280;55128;50.230;18.944;2023-06-26T18:02:47;98133.16;;;25.90;40.96
63535;BME280;55128;50.230;18.944;2023-06-26T18:07:48;98129.53;;;25.44;42.31
63535;BME280;55128;50.230;18.944;2023-06-26T18:12:49;98129.47;;;25.12;43.51
63535;BME280;55128;50.230;18.944;2023-06-26T18:17:52;98132.22;;;25.04;45.05
63535;BME280;55128;50.230;18.944;2023-06-26T18:22:52;98122.94;;;24.74;45.02
63535;BME280;55128;50.230;18.944;2023-06-26T18:27:54;98113.16;;;24.48;46.73
63535;BME280;55128;50.230;18.944;2023-06-26T18:32:57;98102.31;;;24.23;47.07
63535;BME280;55128;50.230;18.944;2023-06-26T18:37:58;98103.47;;;23.80;49.21
63535;BME280;55128;50.230;18.944;2023-06-26T18:42:58;98098.34;;;23.52;50.05
63535;BME280;55128;50.230;18.944;2023-06-26T18:47:58;98102.63;;;23.20;51.41
63535;BME280;55128;50.230;18.944;2023-06-26T18:52:59;98094.53;;;22.94;52.52
63535;BME280;55128;50.230;18.944;2023-06-26T18:58:00;98091.63;;;22.87;52.46
63535;BME280;55128;50.230;18.944;2023-06-26T19:03:01;98090.75;;;22.79;52.44
63535;BME280;55128;50.230;18.944;2023-06-26T19:08:01;98097.56;;;22.30;54.35
63535;BME280;55128;50.230;18.944;2023-06-26T19:13:02;98099.50;;;22.02;55.06
63535;BME280;55128;50.230;18.944;2023-06-26T19:18:02;98097.69;;;21.85;56.83
63535;BME280;55128;50.230;18.944;2023-06-26T19:23:04;98082.69;;;21.90;57.52
63535;BME280;55128;50.230;18.944;2023-06-26T19:28:04;98067.69;;;21.42;59.40
63535;BME280;55128;50.230;18.944;2023-06-26T19:33:05;98078.69;;;21.31;60.44
63535;BME280;55128;50.230;18.944;2023-06-26T19:38:05;98071.66;;;21.20;60.32
63535;BME280;55128;50.230;18.944;2023-06-26T19:43:07;98076.56;;;21.07;61.16
63535;BME280;55128;50.230;18.944;2023-06-26T19:48:08;98083.16;;;20.94;61.20
63535;BME280;55128;50.230;18.944;2023-06-26T19:53:08;98083.25;;;20.75;62.29
63535;BME280;55128;50.230;18.944;2023-06-26T19:58:08;98085.16;;;20.65;62.82
63535;BME280;55128;50.230;18.944;2023-06-26T20:03:09;98072.56;;;20.36;63.91
63535;BME280;55128;50.230;18.944;2023-06-26T20:08:10;98077.69;;;20.19;64.37
63535;BME280;55128;50.230;18.944;2023-06-26T20:13:10;98062.81;;;20.15;64.47
63535;BME280;55128;50.230;18.944;2023-06-26T20:18:10;98053.38;;;19.92;65.55
63535;BME280;55128;50.230;18.944;2023-06-26T20:23:11;98052.53;;;19.81;65.83
63535;BME280;55128;50.230;18.944;2023-06-26T20:28:11;98055.06;;;19.83;65.80
63535;BME280;55128;50.230;18.944;2023-06-26T20:33:11;98058.03;;;19.60;66.46
63535;BME280;55128;50.230;18.944;2023-06-26T20:38:12;98061.00;;;19.48;66.84
63535;BME280;55128;50.230;18.944;2023-06-26T20:43:12;98065.53;;;19.37;67.04
63535;BME280;55128;50.230;18.944;2023-06-26T20:48:13;98053.63;;;19.20;66.77
63535;BME280;55128;50.230;18.944;2023-06-26T20:53:14;98042.53;;;19.14;67.64
63535;BME280;55128;50.230;18.944;2023-06-26T20:58:14;98048.03;;;19.02;67.72
63535;BME280;55128;50.230;18.944;2023-06-26T21:03:15;98047.59;;;18.97;67.84
63535;BME280;55128;50.230;18.944;2023-06-26T21:08:15;98048.97;;;18.82;68.38
63535;BME280;55128;50.230;18.944;2023-06-26T21:13:15;98045.50;;;18.60;68.88
63535;BME280;55128;50.230;18.944;2023-06-26T21:18:16;98042.97;;;18.69;69.02
63535;BME280;55128;50.230;18.944;2023-06-26T21:23:16;98033.63;;;18.73;69.08
63535;BME280;55128;50.230;18.944;2023-06-26T21:28:18;98032.75;;;18.62;69.04
63535;BME280;55128;50.230;18.944;2023-06-26T21:33:24;98031.91;;;18.62;69.10
63535;BME280;55128;50.230;18.944;2023-06-26T21:38:25;98036.53;;;18.50;69.12
63535;BME280;55128;50.230;18.944;2023-06-26T21:43:25;98035.16;;;18.25;70.18
63535;BME280;55128;50.230;18.944;2023-06-26T21:48:26;98016.97;;;18.38;69.98
63535;BME280;55128;50.230;18.944;2023-06-26T21:53:26;98021.97;;;18.53;69.69
63535;BME280;55128;50.230;18.944;2023-06-26T21:58:26;98004.03;;;18.63;69.77
63535;BME280;55128;50.230;18.944;2023-06-26T22:03:27;98003.75;;;18.56;69.89
63535;BME280;55128;50.230;18.944;2023-06-26T22:08:27;97996.69;;;18.65;69.68
63535;BME280;55128;50.230;18.944;2023-06-26T22:13:27;97984.06;;;18.65;69.50
63535;BME280;55128;50.230;18.944;2023-06-26T22:18:28;97976.88;;;18.56;69.69
63535;BME280;55128;50.230;18.944;2023-06-26T22:23:28;97962.16;;;18.60;68.84
63535;BME280;55128;50.230;18.944;2023-06-26T22:28:28;97967.41;;;18.62;68.60
63535;BME280;55128;50.230;18.944;2023-06-26T22:33:29;97983.22;;;18.55;68.44
63535;BME280;55128;50.230;18.944;2023-06-26T22:38:30;97985.78;;;18.67;69.26
63535;BME280;55128;50.230;18.944;2023-06-26T22:43:30;98034.22;;;18.76;69.80
63535;BME280;55128;50.230;18.944;2023-06-26T22:48:30;98089.81;;;19.07;66.01
63535;BME280;55128;50.230;18.944;2023-06-26T22:53:31;98103.38;;;19.65;64.64
63535;BME280;55128;50.230;18.944;2023-06-26T22:58:32;98120.16;;;19.78;69.88
63535;BME280;55128;50.230;18.944;2023-06-26T23:03:32;98115.22;;;19.23;74.31
63535;BME280;55128;50.230;18.944;2023-06-26T23:08:32;98105.94;;;18.97;77.15
63535;BME280;55128;50.230;18.944;2023-06-26T23:13:35;98109.66;;;19.06;77.60
63535;BME280;55128;50.230;18.944;2023-06-26T23:18:35;98103.97;;;18.99;78.61
63535;BME280;55128;50.230;18.944;2023-06-26T23:23:36;98096.50;;;19.12;78.54
63535;BME280;55128;50.230;18.944;2023-06-26T23:28:36;98105.25;;;19.04;80.30
63535;BME280;55128;50.230;18.944;2023-06-26T23:33:37;98114.50;;;19.21;80.68
63535;BME280;55128;50.230;18.944;2023-06-26T23:38:40;98106.03;;;19.26;81.79
63535;BME280;55128;50.230;18.944;2023-06-26T23:43:43;98087.59;;;19.31;81.21
63535;BME280;55128;50.230;18.944;2023-06-26T23:48:43;98074.16;;;19.21;81.98
63535;BME280;55128;50.230;18.944;2023-06-26T23:53:44;98048.59;;;18.96;84.08
63535;BME280;55128;50.230;18.944;2023-06-26T23:58:44;98060.78;;;18.91;85.11
